Terminal Aerodrome Forecast
Issued by NWS

Home | Current Version | Previous Version | Graphics & Text | Print | Product List | Glossary On
Versions: 1 2 3 4 5 6 7 8 9 10 11 12 13 14 15 16 17 18 19 20 21 22 23 24 25 26 27 28 29 30 31 32 33 34 35 36 37 38 39 40 41 42 43 44 45 46 47 48
422
FTUS43 KGRB 161509 AAC
TAFATW
TAF AMD
KATW 161509Z 1615/1712 09008KT P6SM SCT015 BKN100
     FM161700 08009KT P6SM SCT025 BKN200
     FM170200 09008KT P6SM VCSH SCT040 BKN080
     FM170500 11008KT 5SM SHRA VCTS BKN030CB
     FM170900 12008G15KT 2SM SHRA BR VCTS OVC015CB=

USA.gov is the U.S. government's official web portal to all federal, state and local government web resources and services.